Time;durP1;ratioP1;P1;durP2;ratioP2;P2;SDS_P1;SDS_P2;PMS_P1;PMS_P2;Temp;Humidity;BMP_temperature;BMP_pressure;BME280_temperature;BME280_humidity;BME280_pressure;Samples;Min_cycle;Max_cycle;Signal;HPM_P1;HPM_P2
2023/01/12 00:01:20;;;;;;;;;6.00;6.00;;;;;9.92;76.80;101031.28;5070056;28;45515;-64
2023/01/12 00:03:45;;;;;;;;;5.50;5.50;;;;;9.93;76.65;101030.38;5037473;28;46143;-62
2023/01/12 00:06:11;;;;;;;;;5.75;5.75;;;;;9.93;76.63;101032.16;5037467;28;45410;-62
2023/01/12 00:08:37;;;;;;;;;4.50;4.00;;;;;9.93;77.10;101021.66;5037664;28;45859;-64
2023/01/12 00:11:02;;;;;;;;;4.00;4.00;;;;;9.95;76.85;101035.59;5053313;28;45470;-64
2023/01/12 00:13:30;;;;;;;;;3.00;2.75;;;;;9.93;77.02;101027.75;5036455;28;45462;-64
2023/01/12 00:18:43;;;;;;;;;2.75;2.75;;;;;9.90;77.21;100996.31;5037488;28;45375;-67
2023/01/12 00:21:08;;;;;;;;;4.00;4.00;;;;;9.87;78.05;100995.56;5036983;28;45344;-69
2023/01/12 00:23:34;;;;;;;;;10.00;8.00;;;;;9.87;78.16;100985.91;5037379;28;45308;-65
2023/01/12 00:25:59;;;;;;;;;7.00;5.50;;;;;9.86;78.62;100980.69;5036980;28;45503;-71
2023/01/12 00:28:24;;;;;;;;;4.00;4.00;;;;;9.77;78.95;100977.44;5036536;28;57520;-66
2023/01/12 00:30:50;;;;;;;;;3.00;3.00;;;;;9.84;79.15;100990.41;5039274;28;45312;-62
2023/01/12 00:33:15;;;;;;;;;5.25;5.25;;;;;9.80;79.07;100984.38;5036940;28;46111;-64
2023/01/12 00:35:40;;;;;;;;;4.25;3.50;;;;;9.81;78.71;100982.63;5035353;28;45320;-65
2023/01/12 00:38:06;;;;;;;;;5.00;5.00;;;;;9.83;78.94;100984.28;5037372;28;45344;-63
2023/01/12 00:40:31;;;;;;;;;4.00;4.00;;;;;9.83;78.93;100978.16;5038781;28;45426;-65
2023/01/12 00:45:41;;;;;;;;;6.75;5.25;;;;;9.86;78.97;100971.03;5037482;28;45401;-62
2023/01/12 00:48:11;;;;;;;;;3.25;3.25;;;;;9.86;78.72;100976.28;5036873;28;52625;-64
2023/01/12 00:50:37;;;;;;;;;4.25;4.25;;;;;9.91;78.82;100981.41;5037321;28;45429;-65
2023/01/12 00:53:02;;;;;;;;;3.25;3.25;;;;;9.90;78.16;100962.16;5036734;28;45470;-63
2023/01/12 00:55:27;;;;;;;;;2.75;2.75;;;;;9.88;78.26;100944.72;5037817;28;45364;-67
2023/01/12 00:57:53;;;;;;;;;3.75;3.75;;;;;9.93;78.46;100927.88;5037142;28;45406;-63
2023/01/12 01:00:18;;;;;;;;;3.00;3.00;;;;;9.93;78.45;100914.75;5037376;28;45472;-64
2023/01/12 01:02:44;;;;;;;;;3.50;3.00;;;;;9.95;78.04;100927.84;5036448;28;45431;-62
2023/01/12 01:05:09;;;;;;;;;3.00;3.00;;;;;9.86;78.17;100900.09;5051652;28;45362;-64
2023/01/12 01:07:34;;;;;;;;;5.00;3.00;;;;;9.94;77.88;100913.00;5036489;28;45361;-65
2023/01/12 01:10:00;;;;;;;;;3.00;3.00;;;;;9.93;78.02;100927.88;5036834;28;45341;-62
2023/01/12 01:12:25;;;;;;;;;4.00;4.00;;;;;9.91;77.83;100920.97;5036289;28;46155;-63
2023/01/12 01:14:52;;;;;;;;;3.00;3.00;;;;;9.93;77.59;100932.31;5036285;28;54982;-62
2023/01/12 01:17:18;;;;;;;;;3.00;3.00;;;;;9.96;77.63;100936.59;5036678;28;45248;-63
2023/01/12 01:19:47;;;;;;;;;4.00;3.25;;;;;9.96;78.10;100926.94;5037881;28;45220;-67
2023/01/12 01:22:13;;;;;;;;;4.25;4.25;;;;;9.97;77.94;100936.56;5052232;28;47619;-65
2023/01/12 01:24:38;;;;;;;;;2.00;2.00;;;;;9.90;77.87;100920.09;5036393;28;45467;-62
2023/01/12 01:27:04;;;;;;;;;4.25;4.25;;;;;9.99;77.84;100929.47;5036717;28;45498;-61
2023/01/12 01:29:29;;;;;;;;;5.25;4.75;;;;;9.94;77.84;100923.50;5035671;28;56011;-62
2023/01/12 01:31:55;;;;;;;;;3.75;3.75;;;;;9.97;77.52;100926.03;5035991;28;47018;-63
2023/01/12 01:34:22;;;;;;;;;3.00;3.00;;;;;9.98;77.62;100914.63;5036276;28;45351;-62
2023/01/12 01:36:48;;;;;;;;;5.75;5.75;;;;;9.91;77.13;100931.50;5036287;28;45307;-62
2023/01/12 01:39:13;;;;;;;;;3.00;3.00;;;;;9.93;77.87;100934.94;5051639;28;45268;-61
2023/01/12 01:41:38;;;;;;;;;2.50;2.50;;;;;9.88;77.75;100937.69;5035924;28;48229;-68
2023/01/12 01:44:28;;;;;;;;;3.00;2.25;;;;;9.88;77.76;100936.84;5052356;28;45331;-69
2023/01/12 01:47:01;;;;;;;;;3.50;3.50;;;;;9.86;77.62;100936.88;5036793;28;45516;-65
2023/01/12 01:49:32;;;;;;;;;3.25;3.25;;;;;9.83;78.06;100931.72;5035254;28;45313;-67
2023/01/12 01:52:18;;;;;;;;;2.75;2.75;;;;;9.83;78.14;100920.38;5035707;28;47317;-72
2023/01/12 01:55:05;;;;;;;;;2.00;2.00;;;;;9.83;77.98;100917.75;5035902;28;45281;-72
2023/01/12 01:57:40;;;;;;;;;3.00;3.00;;;;;9.80;78.20;100905.53;5035667;28;45285;-64
2023/01/12 02:00:09;;;;;;;;;3.50;3.25;;;;;9.75;78.28;100899.56;5036172;28;45253;-63
2023/01/12 02:02:35;;;;;;;;;1.00;1.00;;;;;9.82;78.39;100919.50;5035576;28;45482;-62
2023/01/12 02:05:02;;;;;;;;;2.50;2.25;;;;;9.82;78.36;100918.66;5033893;28;45461;-62
2023/01/12 02:07:27;;;;;;;;;4.00;2.00;;;;;9.83;78.51;100933.50;5035342;28;45380;-63
2023/01/12 02:09:52;;;;;;;;;3.00;3.00;;;;;9.84;78.85;100919.47;5037115;28;45607;-70
2023/01/12 02:17:55;;;;;;;;;3.25;3.25;;;;;9.90;78.31;100927.16;5035616;28;45351;-61
2023/01/12 02:20:35;;;;;;;;;5.00;5.00;;;;;9.91;78.41;100913.09;5034106;28;45396;-65
2023/01/12 02:23:23;;;;;;;;;6.00;6.00;;;;;9.91;78.57;100905.22;5035242;28;46389;-67
2023/01/12 02:26:04;;;;;;;;;3.50;3.50;;;;;9.94;78.47;100910.38;5033559;28;45415;-63
2023/01/12 02:29:00;;;;;;;;;3.25;3.00;;;;;9.94;78.52;100897.22;5035290;28;45296;-61
2023/01/12 02:31:41;;;;;;;;;4.00;4.00;;;;;9.94;78.19;100897.22;5034344;28;45718;-62
2023/01/12 02:34:31;;;;;;;;;4.00;4.00;;;;;9.89;78.61;100883.38;5050449;28;48604;-62
2023/01/12 02:37:13;;;;;;;;;5.50;4.00;;;;;9.97;78.33;100886.63;5035400;28;45220;-61
2023/01/12 02:39:43;;;;;;;;;2.75;2.75;;;;;9.99;78.54;100900.56;5050639;28;45291;-64
2023/01/12 02:42:40;;;;;;;;;2.00;2.00;;;;;10.02;78.71;100899.59;5035723;28;45296;-62
2023/01/12 02:45:24;;;;;;;;;2.00;2.00;;;;;10.03;78.58;100878.53;5035137;28;46305;-63
2023/01/12 02:48:25;;;;;;;;;3.25;3.25;;;;;10.04;78.04;100872.38;5050263;28;45439;-62
2023/01/12 02:51:04;;;;;;;;;3.00;3.00;;;;;10.05;77.91;100868.81;5033584;28;45300;-62
2023/01/12 02:53:43;;;;;;;;;3.25;3.00;;;;;10.06;78.12;100870.53;5035531;28;46011;-63
2023/01/12 02:56:12;;;;;;;;;2.75;2.75;;;;;10.06;78.03;100857.41;5035156;28;45284;-63
2023/01/12 02:58:46;;;;;;;;;3.00;3.00;;;;;10.08;78.00;100863.47;5035389;28;45256;-63
2023/01/12 03:01:14;;;;;;;;;2.25;2.00;;;;;10.08;78.07;100863.47;5039238;28;45266;-60
2023/01/12 03:03:40;;;;;;;;;5.25;5.00;;;;;10.12;78.22;100856.34;5038604;28;45277;-61
2023/01/12 03:06:06;;;;;;;;;6.00;4.50;;;;;10.13;78.19;100854.56;5037010;28;47222;-64
2023/01/12 03:08:36;;;;;;;;;0.00;0.00;;;;;10.14;77.59;100851.91;5038520;28;45490;-68
2023/01/12 03:11:11;;;;;;;;;2.00;1.25;;;;;10.14;77.94;100836.13;5038366;28;45185;-68
2023/01/12 03:13:42;;;;;;;;;3.50;2.50;;;;;10.16;77.72;100836.94;5038570;28;45391;-63
2023/01/12 03:16:10;;;;;;;;;2.75;2.75;;;;;10.17;77.38;100835.16;5038209;28;45454;-68
2023/01/12 03:18:57;;;;;;;;;2.00;2.00;;;;;10.16;77.58;100828.19;5053759;28;45276;-68
2023/01/12 03:21:34;;;;;;;;;1.75;1.75;;;;;10.17;77.79;100836.03;5038313;28;45328;-63
2023/01/12 03:24:08;;;;;;;;;1.00;1.00;;;;;10.15;77.78;100831.72;5039052;28;45416;-67
2023/01/12 03:26:37;;;;;;;;;2.00;2.00;;;;;10.09;77.88;100815.25;5036467;28;47562;-75
2023/01/12 03:29:12;;;;;;;;;2.00;2.00;;;;;10.17;78.12;100822.88;5038075;28;45418;-69
2023/01/12 03:31:38;;;;;;;;;1.00;1.00;;;;;10.14;78.32;100812.47;5038250;28;45334;-65
2023/01/12 03:34:03;;;;;;;;;2.25;2.25;;;;;10.16;78.31;100812.41;5053577;28;45482;-68
2023/01/12 03:36:43;;;;;;;;;1.00;1.00;;;;;10.16;78.50;100823.78;5038230;28;46111;-67
2023/01/12 03:39:27;;;;;;;;;3.00;2.00;;;;;10.16;78.48;100809.78;5038536;28;45359;-64
2023/01/12 03:42:02;;;;;;;;;2.75;2.75;;;;;10.12;78.61;100797.66;5038517;28;45328;-63
2023/01/12 03:44:52;;;;;;;;;2.00;2.00;;;;;10.18;78.82;100806.19;5038638;28;45259;-62
2023/01/12 03:47:23;;;;;;;;;2.25;2.25;;;;;10.18;78.52;100787.78;5039308;28;46200;-63
2023/01/12 03:49:51;;;;;;;;;1.75;1.25;;;;;10.19;78.65;100800.03;5039332;28;45396;-64
2023/01/12 03:52:21;;;;;;;;;2.00;2.00;;;;;10.16;78.50;100794.88;5037895;28;45317;-63
2023/01/12 03:54:48;;;;;;;;;1.50;1.50;;;;;10.21;79.05;100797.31;5036096;28;45603;-63
2023/01/12 03:57:15;;;;;;;;;3.00;2.25;;;;;10.22;78.52;100796.41;5035146;28;47351;-63
2023/01/12 03:59:41;;;;;;;;;2.50;2.50;;;;;10.21;79.04;100779.78;5035441;28;45601;-68
2023/01/12 04:02:06;;;;;;;;;1.25;0.50;;;;;10.25;78.89;100792.84;5036945;28;45458;-64
2023/01/12 04:04:32;;;;;;;;;3.00;3.00;;;;;10.23;79.45;100780.59;5038147;28;45591;-67
2023/01/12 04:06:57;;;;;;;;;1.25;1.25;;;;;10.25;79.31;100782.31;5037253;28;46119;-64
2023/01/12 04:09:24;;;;;;;;;1.00;1.00;;;;;10.26;79.42;100768.25;5037259;28;45932;-65
2023/01/12 04:14:34;;;;;;;;;0.50;0.50;;;;;10.23;79.75;100763.94;5039709;28;45348;-63
2023/01/12 04:16:59;;;;;;;;;2.00;2.00;;;;;10.22;79.10;100754.34;5038495;28;46045;-63
2023/01/12 04:19:24;;;;;;;;;2.00;2.00;;;;;10.20;79.28;100743.03;5041126;28;45221;-62
2023/01/12 04:24:34;;;;;;;;;3.25;1.50;;;;;10.21;79.38;100750.00;5037944;28;45676;-63
2023/01/12 04:26:59;;;;;;;;;1.00;1.00;;;;;10.21;79.53;100744.75;5037162;28;45402;-66
2023/01/12 04:29:24;;;;;;;;;1.50;1.50;;;;;10.18;79.46;100735.22;5037318;28;45365;-65
2023/01/12 04:31:50;;;;;;;;;2.00;2.00;;;;;10.19;79.38;100736.94;5038563;28;45310;-62
2023/01/12 04:34:15;;;;;;;;;4.00;4.00;;;;;10.20;79.16;100727.25;5038724;28;45657;-67
2023/01/12 04:36:41;;;;;;;;;2.50;2.50;;;;;10.19;79.09;100715.03;5035321;28;56072;-61
2023/01/12 04:39:07;;;;;;;;;2.50;2.50;;;;;10.18;78.96;100708.94;5037396;28;45338;-63
2023/01/12 04:41:32;;;;;;;;;2.00;2.00;;;;;10.20;79.33;100719.38;5037366;28;45285;-62
2023/01/12 04:43:58;;;;;;;;;2.00;2.00;;;;;10.22;78.71;100736.81;5037437;28;45390;-64
2023/01/12 04:46:23;;;;;;;;;2.75;2.75;;;;;10.23;78.94;100730.66;5036729;28;46222;-64
2023/01/12 04:48:49;;;;;;;;;2.00;2.00;;;;;10.28;78.80;100734.88;5035320;28;45465;-69
2023/01/12 04:51:14;;;;;;;;;3.00;3.00;;;;;10.30;78.82;100751.47;5037025;28;45343;-70
2023/01/12 04:53:39;;;;;;;;;3.25;2.50;;;;;10.29;78.35;100742.69;5036953;28;45445;-72
2023/01/12 04:56:06;;;;;;;;;2.25;2.00;;;;;10.34;78.45;100734.66;5036945;28;45398;-73
2023/01/12 04:58:31;;;;;;;;;2.00;2.00;;;;;10.35;78.35;100723.22;5036856;28;45436;-68
2023/01/12 05:00:57;;;;;;;;;3.75;2.50;;;;;10.36;78.86;100720.53;5037048;28;45305;-62
2023/01/12 05:03:23;;;;;;;;;1.75;1.75;;;;;10.38;78.10;100734.47;5036954;28;45582;-62
2023/01/12 05:05:48;;;;;;;;;2.25;2.25;;;;;10.35;78.28;100710.91;5036531;28;45326;-61
2023/01/12 05:11:14;;;;;;;;;0.75;0.75;;;;;10.34;78.40;100695.22;5014537;28;45532;-62
2023/01/12 05:13:39;;;;;;;;;3.00;3.00;;;;;10.35;77.83;100689.88;5031737;28;45349;-62
2023/01/12 05:16:15;;;;;;;;;2.50;2.50;;;;;10.42;78.39;100702.84;5036563;28;45526;-63
2023/01/12 05:18:41;;;;;;;;;1.00;1.00;;;;;10.43;77.92;100713.31;5036276;28;45486;-62
2023/01/12 05:21:07;;;;;;;;;2.50;2.00;;;;;10.42;78.15;100701.06;5036854;28;45404;-61
2023/01/12 05:23:32;;;;;;;;;2.25;2.25;;;;;10.35;78.28;100681.16;5037210;28;45705;-62
2023/01/12 05:26:04;;;;;;;;;1.00;1.00;;;;;10.46;77.97;100702.66;5037253;28;46046;-63
2023/01/12 05:28:30;;;;;;;;;2.00;2.00;;;;;10.43;78.45;100697.53;5037447;28;45415;-65
2023/01/12 05:31:02;;;;;;;;;2.75;2.00;;;;;10.47;78.55;100699.13;5037365;28;45327;-63
2023/01/12 05:33:27;;;;;;;;;4.00;3.00;;;;;10.48;78.22;100706.09;5036319;28;45412;-63
2023/01/12 05:35:52;;;;;;;;;3.00;3.00;;;;;10.44;78.70;100693.97;5035674;28;46124;-63
2023/01/12 05:38:17;;;;;;;;;2.00;2.00;;;;;10.51;77.76;100689.34;5036167;28;45760;-64
2023/01/12 05:40:43;;;;;;;;;1.00;1.00;;;;;10.52;78.01;100691.03;5035691;28;45178;-64
2023/01/12 05:45:55;;;;;;;;;1.75;1.50;;;;;10.54;78.10;100693.63;5035776;28;45523;-62
2023/01/12 05:48:20;;;;;;;;;2.75;2.75;;;;;10.57;77.87;100696.16;5035717;28;45407;-63
2023/01/12 05:50:46;;;;;;;;;2.00;2.00;;;;;10.57;77.86;100699.63;5035796;28;46169;-61
2023/01/12 05:53:11;;;;;;;;;2.00;2.00;;;;;10.58;77.68;100698.69;5036820;28;47643;-66
2023/01/12 05:55:37;;;;;;;;;1.00;0.25;;;;;10.60;77.98;100709.19;5036188;28;45459;-66
2023/01/12 05:58:02;;;;;;;;;2.25;2.25;;;;;10.58;77.77;100713.63;5035344;28;45499;-68
2023/01/12 06:00:28;;;;;;;;;1.25;1.25;;;;;10.55;78.24;100705.88;5035480;28;45459;-66
2023/01/12 06:02:53;;;;;;;;;2.25;1.75;;;;;10.61;78.02;100708.25;5035789;28;45245;-63
2023/01/12 06:05:18;;;;;;;;;2.00;2.00;;;;;10.57;78.33;100707.50;5035760;28;63555;-62
2023/01/12 06:07:43;;;;;;;;;1.00;1.00;;;;;10.56;77.84;100692.63;5037732;28;45416;-61
2023/01/12 06:10:10;;;;;;;;;2.50;2.50;;;;;10.62;78.50;100700.31;5038519;28;52540;-63
2023/01/12 06:15:19;;;;;;;;;2.00;2.00;;;;;10.66;78.21;100686.13;5035887;28;45790;-64
2023/01/12 06:17:44;;;;;;;;;1.00;1.00;;;;;10.68;78.93;100677.31;5036424;28;45345;-65
2023/01/12 06:20:13;;;;;;;;;2.00;2.00;;;;;10.65;78.80;100679.16;5036949;28;45292;-64
2023/01/12 06:22:40;;;;;;;;;2.50;2.00;;;;;10.65;78.54;100692.31;5036931;28;45303;-68
2023/01/12 06:25:06;;;;;;;;;2.00;1.25;;;;;10.64;78.81;100680.09;5035372;28;45464;-66
2023/01/12 06:27:34;;;;;;;;;0.00;0.00;;;;;10.61;79.09;100687.22;5035134;28;45435;-62
2023/01/12 06:29:59;;;;;;;;;0.75;0.75;;;;;10.60;79.16;100689.00;5034775;28;45288;-64
2023/01/12 06:32:24;;;;;;;;;1.75;1.75;;;;;10.60;79.13;100696.91;5034943;28;45467;-65
2023/01/12 06:34:50;;;;;;;;;1.75;1.75;;;;;10.63;78.97;100691.53;5034077;28;56431;-66
2023/01/12 06:37:15;;;;;;;;;0.25;0.25;;;;;10.63;79.49;100706.44;5034131;28;63420;-65
2023/01/12 06:39:40;;;;;;;;;5.75;5.25;;;;;10.63;79.23;100709.06;5050464;28;47518;-66
2023/01/12 06:44:49;;;;;;;;;1.75;1.75;;;;;10.68;79.50;100719.41;5035296;28;45260;-62
2023/01/12 06:47:15;;;;;;;;;1.25;1.25;;;;;10.68;79.26;100722.06;5037323;28;45246;-63
2023/01/12 06:49:40;;;;;;;;;2.25;2.00;;;;;10.69;78.99;100716.72;5054308;28;56418;-65
2023/01/12 06:52:06;;;;;;;;;0.00;0.00;;;;;10.71;79.58;100728.03;5056355;28;45327;-66
2023/01/12 06:54:31;;;;;;;;;1.75;1.75;;;;;10.69;79.34;100723.75;5053921;28;45519;-62
2023/01/12 06:56:56;;;;;;;;;1.25;1.25;;;;;10.74;79.25;100706.88;5055033;28;45290;-74
2023/01/12 06:59:22;;;;;;;;;4.50;4.50;;;;;10.74;79.45;100712.13;5054341;28;45265;-74
2023/01/12 07:01:47;;;;;;;;;1.25;1.25;;;;;10.77;79.45;100708.53;5036263;28;45545;-73
2023/01/12 07:04:12;;;;;;;;;1.25;1.25;;;;;10.77;79.20;100712.00;5036649;28;45300;-73
2023/01/12 07:06:38;;;;;;;;;1.00;1.00;;;;;10.81;79.58;100707.50;5083938;27;45267;-74
2023/01/12 07:09:04;;;;;;;;;1.25;1.25;;;;;10.71;79.52;100691.19;5055665;28;45382;-71
2023/01/12 07:11:30;;;;;;;;;1.75;1.75;;;;;10.81;79.65;100700.44;5054758;28;45280;-73
2023/01/12 07:13:55;;;;;;;;;3.00;3.00;;;;;10.77;80.58;100700.66;5054247;28;46014;-73
2023/01/12 07:16:21;;;;;;;;;1.50;0.50;;;;;10.71;80.45;100691.19;5068268;28;45426;-75
2023/01/12 07:18:46;;;;;;;;;0.00;0.00;;;;;10.71;80.98;100685.09;5052585;28;45423;-75
2023/01/12 07:21:13;;;;;;;;;1.50;1.50;;;;;10.66;81.03;100680.00;5055224;28;45478;-76
2023/01/12 07:23:42;;;;;;;;;2.00;2.00;;;;;10.65;81.31;100680.91;5053289;28;48480;-75
2023/01/12 07:26:09;;;;;;;;;2.25;2.25;;;;;10.63;82.05;100681.00;5051345;28;45674;-76
2023/01/12 07:28:35;;;;;;;;;1.00;1.00;;;;;10.64;81.61;100684.47;5086862;27;45454;-74
2023/01/12 07:31:02;;;;;;;;;1.00;1.00;;;;;10.65;82.00;100696.69;5054582;28;45356;-72
2023/01/12 07:33:28;;;;;;;;;1.00;1.00;;;;;10.55;81.77;100683.03;5054577;28;45405;-73
2023/01/12 07:35:56;;;;;;;;;0.75;0.75;;;;;10.56;82.44;100689.16;5086531;27;45512;-74
2023/01/12 07:38:22;;;;;;;;;0.50;0.50;;;;;10.59;82.09;100707.47;5052949;28;45521;-75
2023/01/12 07:40:47;;;;;;;;;4.00;4.00;;;;;10.58;82.27;100705.75;5054687;28;45323;-74
2023/01/12 07:43:15;;;;;;;;;2.00;2.00;;;;;10.57;82.28;100694.34;5054470;28;45343;-76
2023/01/12 07:45:41;;;;;;;;;2.00;1.25;;;;;10.53;82.39;100684.88;5054339;28;45457;-75
2023/01/12 07:48:07;;;;;;;;;2.00;2.00;;;;;10.55;82.42;100695.34;5056983;28;45454;-75
2023/01/12 07:50:32;;;;;;;;;3.50;2.00;;;;;10.52;82.06;100686.66;5057130;28;45509;-76
2023/01/12 07:53:01;;;;;;;;;1.50;1.50;;;;;10.60;82.26;100702.16;5056252;28;45312;-74
2023/01/12 07:55:26;;;;;;;;;3.25;2.00;;;;;10.55;81.94;100676.94;5035891;28;45971;-75
2023/01/12 07:57:54;;;;;;;;;3.25;3.00;;;;;10.63;81.93;100698.53;5037381;28;45306;-74
2023/01/12 08:00:22;;;;;;;;;3.50;3.50;;;;;10.63;81.62;100699.41;5038974;28;45654;-76
2023/01/12 08:02:52;;;;;;;;;4.00;4.00;;;;;10.65;81.11;100692.31;5037229;28;45955;-76
2023/01/12 08:05:18;;;;;;;;;1.00;1.00;;;;;10.69;81.14;100702.72;5037361;28;45289;-76
2023/01/12 08:07:44;;;;;;;;;1.00;1.00;;;;;10.71;80.92;100700.88;5037740;28;45481;-76
2023/01/12 08:10:11;;;;;;;;;3.00;3.00;;;;;10.71;81.05;100700.88;5038403;28;45445;-75
2023/01/12 08:12:37;;;;;;;;;2.75;2.75;;;;;10.76;80.70;100704.19;5037363;28;45434;-76
2023/01/12 08:15:03;;;;;;;;;1.00;1.00;;;;;10.74;80.52;100701.59;5037492;28;45331;-75
2023/01/12 08:17:35;;;;;;;;;2.25;2.25;;;;;10.79;80.36;100696.19;5037980;28;45295;-75
2023/01/12 08:20:04;;;;;;;;;1.75;1.75;;;;;10.83;80.78;100705.66;5037007;28;45387;-75
2023/01/12 08:22:36;;;;;;;;;1.50;1.50;;;;;10.86;80.79;100691.50;5019631;28;47750;-75
2023/01/12 08:25:26;;;;;;;;;1.00;1.00;;;;;10.85;80.53;100682.78;5037807;28;45490;-77
2023/01/12 08:27:57;;;;;;;;;2.00;2.00;;;;;10.90;80.59;100682.56;5053556;28;45346;-77
2023/01/12 08:30:24;;;;;;;;;2.00;2.00;;;;;10.93;80.21;100692.97;5037477;28;45382;-76
2023/01/12 08:32:50;;;;;;;;;0.00;0.00;;;;;10.93;79.67;100699.13;5036933;28;46558;-74
2023/01/12 08:35:20;;;;;;;;;1.00;1.00;;;;;10.97;80.08;100702.47;5036715;28;45237;-74
2023/01/12 08:37:45;;;;;;;;;1.50;1.50;;;;;10.99;79.89;100686.63;5037620;28;45274;-77
2023/01/12 08:40:12;;;;;;;;;2.00;2.00;;;;;10.99;79.95;100703.25;5053939;28;45394;-77
2023/01/12 08:42:38;;;;;;;;;3.00;2.00;;;;;10.98;80.32;100690.19;5037416;28;46134;-76
2023/01/12 08:45:06;;;;;;;;;1.25;1.25;;;;;10.98;80.50;100696.28;5036977;28;45407;-75
2023/01/12 08:47:32;;;;;;;;;1.00;1.00;;;;;11.02;80.66;100697.88;5038033;28;45344;-77
2023/01/12 08:49:59;;;;;;;;;1.50;1.50;;;;;11.02;80.62;100702.28;5038158;28;45525;-77
2023/01/12 08:52:28;;;;;;;;;0.75;0.75;;;;;11.03;80.55;100704.00;5038093;28;46208;-76
2023/01/12 08:54:53;;;;;;;;;3.00;3.00;;;;;11.02;80.38;100711.03;5037655;28;45347;-78
2023/01/12 08:57:19;;;;;;;;;1.75;1.75;;;;;11.04;80.95;100706.56;5035252;28;45355;-76
2023/01/12 08:59:44;;;;;;;;;2.25;2.25;;;;;11.05;81.45;100700.38;5038012;28;45607;-74
2023/01/12 09:02:11;;;;;;;;;1.00;1.00;;;;;11.04;81.08;100696.03;5037684;28;46030;-77
2023/01/12 09:04:39;;;;;;;;;2.75;2.75;;;;;11.05;81.03;100702.19;5052741;28;45310;-76
2023/01/12 09:07:05;;;;;;;;;1.75;1.75;;;;;10.96;81.53;100688.47;5037471;28;45449;-77
2023/01/12 09:09:30;;;;;;;;;1.00;1.00;;;;;11.04;81.32;100713.63;5036839;28;45402;-77
2023/01/12 09:11:55;;;;;;;;;2.00;2.00;;;;;11.00;81.79;100707.59;5037368;28;46054;-75
2023/01/12 09:14:21;;;;;;;;;1.75;1.75;;;;;11.03;82.69;100707.50;5036020;28;45401;-75
2023/01/12 09:16:46;;;;;;;;;3.25;3.00;;;;;11.01;83.04;100703.22;5037693;28;45445;-76
2023/01/12 09:19:12;;;;;;;;;3.25;3.25;;;;;10.92;83.39;100705.31;5038049;28;45610;-75
2023/01/12 09:21:39;;;;;;;;;66.00;54.33;;;;;10.91;83.75;100695.69;5037605;28;46513;-75
2023/01/12 09:24:06;;;;;;;;;2.00;2.00;;;;;10.90;83.92;100704.50;5037245;28;45407;-76
2023/01/12 09:26:39;;;;;;;;;2.75;2.75;;;;;10.94;83.87;100707.84;5037154;28;45342;-77
2023/01/12 09:29:05;;;;;;;;;2.00;2.00;;;;;10.94;84.84;100714.00;5064820;28;45597;-75
2023/01/12 09:31:31;;;;;;;;;2.00;2.00;;;;;10.94;85.14;100716.63;5035980;28;46994;-74
2023/01/12 09:33:58;;;;;;;;;4.00;4.00;;;;;10.96;85.20;100711.28;5034644;28;45334;-75
2023/01/12 09:36:26;;;;;;;;;2.25;2.25;;;;;10.98;84.93;100713.88;5037743;28;45281;-76
2023/01/12 09:38:51;;;;;;;;;2.00;2.00;;;;;10.84;85.07;100699.47;5037742;28;45368;-75
2023/01/12 09:46:57;;;;;;;;;3.75;3.75;;;;;10.99;85.52;100731.38;5035959;28;46154;-76
2023/01/12 09:47:24;;;;;;;;;4.00;4.00;;;;;10.93;86.06;100716.66;5042489;28;45458;-74
2023/01/12 09:50:12;;;;;;;;;2.75;2.75;;;;;10.96;85.74;100721.81;5038425;28;45308;-74
2023/01/12 09:52:54;;;;;;;;;4.50;3.75;;;;;10.95;85.73;100706.94;5033953;28;47670;-76
2023/01/12 09:55:26;;;;;;;;;3.50;3.50;;;;;10.97;85.75;100710.38;5034266;28;45583;-75
2023/01/12 09:58:13;;;;;;;;;3.75;3.75;;;;;11.00;85.98;100718.13;5035652;28;45286;-73
2023/01/12 10:00:38;;;;;;;;;2.75;2.75;;;;;10.99;85.38;100711.16;5038667;28;45387;-76
2023/01/12 10:03:10;;;;;;;;;3.00;3.00;;;;;11.04;85.45;100718.88;5036394;28;45481;-75
2023/01/12 10:05:39;;;;;;;;;4.00;4.00;;;;;11.07;85.40;100718.75;5035353;28;45443;-77
2023/01/12 10:08:08;;;;;;;;;4.25;3.50;;;;;11.11;84.95;100720.34;5035602;28;45452;-77
2023/01/12 10:10:34;;;;;;;;;3.00;3.00;;;;;11.04;84.58;100703.94;5034727;28;45589;-76
2023/01/12 10:13:05;;;;;;;;;2.50;2.50;;;;;11.13;84.40;100723.78;5034982;28;46057;-75
2023/01/12 10:15:37;;;;;;;;;3.00;3.00;;;;;11.15;84.71;100727.22;5035201;28;45341;-75
2023/01/12 10:18:17;;;;;;;;;2.00;2.00;;;;;11.12;84.57;100714.16;5034849;28;45351;-75
2023/01/12 10:20:43;;;;;;;;;3.00;3.00;;;;;11.18;84.30;100716.56;5033740;28;45320;-78
2023/01/12 10:23:15;;;;;;;;;1.75;1.75;;;;;11.20;84.00;100727.88;5038385;28;46463;-76
2023/01/12 10:25:47;;;;;;;;;3.00;3.00;;;;;11.22;84.14;100727.84;5038641;28;45376;-77
2023/01/12 10:28:23;;;;;;;;;3.00;3.00;;;;;11.21;84.46;100720.84;5035987;28;45348;-75
2023/01/12 10:30:49;;;;;;;;;3.00;3.00;;;;;11.22;84.32;100736.56;5036358;28;45170;-77
2023/01/12 10:33:59;;;;;;;;;2.75;2.75;;;;;11.22;84.41;100719.94;5035112;28;45486;-77
2023/01/12 10:36:24;;;;;;;;;3.50;3.50;;;;;11.19;85.29;100725.31;5035006;28;45285;-74
2023/01/12 10:38:56;;;;;;;;;3.00;3.00;;;;;11.21;85.55;100731.38;5035203;28;45274;-76
2023/01/12 10:41:26;;;;;;;;;3.25;3.25;;;;;11.21;85.25;100715.59;5035423;28;45523;-75
2023/01/12 10:44:15;;;;;;;;;2.00;2.00;;;;;11.18;86.54;100721.81;5034381;28;47387;-76
2023/01/12 10:46:41;;;;;;;;;4.00;4.00;;;;;10.93;86.40;100680.69;5035377;28;45413;-75
2023/01/12 10:49:26;;;;;;;;;3.50;3.50;;;;;11.14;86.92;100714.13;5035981;28;45403;-78
2023/01/12 10:52:01;;;;;;;;;3.75;3.75;;;;;11.11;86.39;100715.09;5036021;28;45351;-75
2023/01/12 10:54:33;;;;;;;;;3.50;3.50;;;;;11.09;86.19;100709.03;5035022;28;46183;-74
2023/01/12 10:57:00;;;;;;;;;1.75;1.75;;;;;11.08;85.84;100710.78;5034937;28;45311;-75
2023/01/12 10:59:38;;;;;;;;;4.00;4.00;;;;;11.09;86.22;100703.75;5033176;28;45379;-76
2023/01/12 11:02:07;;;;;;;;;3.50;3.50;;;;;11.12;86.40;100711.53;5035044;28;45241;-74
2023/01/12 11:04:48;;;;;;;;;5.00;5.00;;;;;11.14;86.81;100699.16;5033101;28;47914;-74
2023/01/12 11:07:21;;;;;;;;;4.00;4.00;;;;;11.19;86.38;100702.47;5034549;28;45340;-74
2023/01/12 11:09:47;;;;;;;;;4.50;4.50;;;;;11.20;86.61;100696.28;5033272;28;45247;-74
2023/01/12 11:12:24;;;;;;;;;2.75;2.75;;;;;11.23;86.17;100697.94;5035232;28;45324;-75
2023/01/12 11:15:10;;;;;;;;;6.50;6.50;;;;;11.27;86.22;100690.75;5035900;28;45522;-76
2023/01/12 11:17:57;;;;;;;;;6.75;6.00;;;;;11.26;85.97;100671.50;5035363;28;45275;-75
2023/01/12 11:20:36;;;;;;;;;5.25;5.25;;;;;11.32;86.00;100678.25;5034880;28;45418;-74
2023/01/12 11:23:08;;;;;;;;;5.00;4.25;;;;;11.35;85.60;100675.50;5038416;28;45343;-75
2023/01/12 11:25:41;;;;;;;;;2.00;2.00;;;;;11.38;84.84;100670.09;5038164;28;45222;-73
2023/01/12 11:28:37;;;;;;;;;24.25;24.25;;;;;11.46;84.28;100661.88;5038206;28;45769;-74
2023/01/12 11:31:07;;;;;;;;;4.50;4.50;;;;;11.48;84.53;100660.03;5053477;28;45363;-76
2023/01/12 11:33:40;;;;;;;;;3.00;3.00;;;;;11.54;84.46;100651.88;5071440;27;45476;-75
2023/01/12 11:36:09;;;;;;;;;3.75;3.75;;;;;11.59;84.40;100654.28;5037923;28;45412;-74
2023/01/12 11:38:42;;;;;;;;;4.00;4.00;;;;;11.62;83.57;100648.91;5038058;28;45263;-76
2023/01/12 11:41:34;;;;;;;;;2.00;2.00;;;;;11.71;83.39;100663.47;5038595;28;45502;-75
2023/01/12 11:44:31;;;;;;;;;3.00;3.00;;;;;11.68;83.18;100648.66;5038520;28;45539;-75
2023/01/12 11:47:04;;;;;;;;;3.25;3.25;;;;;11.78;82.20;100668.41;5038290;28;46169;-75
2023/01/12 11:49:38;;;;;;;;;3.25;3.25;;;;;11.75;82.19;100657.13;5037555;28;45356;-76
2023/01/12 11:52:07;;;;;;;;;3.00;3.00;;;;;11.68;82.65;100646.84;5038102;28;45623;-76
2023/01/12 11:54:33;;;;;;;;;3.25;3.25;;;;;11.74;82.34;100645.75;5046817;28;45365;-76
2023/01/12 11:57:26;;;;;;;;;3.00;3.00;;;;;11.76;82.34;100664.97;5072091;27;47367;-78
2023/01/12 12:00:16;;;;;;;;;3.50;3.50;;;;;11.76;82.51;100654.44;5058095;28;45362;-74
2023/01/12 12:03:19;;;;;;;;;2.00;2.00;;;;;11.76;82.39;100649.19;5058535;28;45362;-73
2023/01/12 12:06:22;;;;;;;;;2.00;2.00;;;;;11.79;82.08;100649.03;5059310;28;45597;-77
2023/01/12 12:08:55;;;;;;;;;3.50;3.25;;;;;11.82;82.22;100642.75;5056538;28;46856;-75
2023/01/12 12:11:37;;;;;;;;;3.00;3.00;;;;;11.81;82.12;100620.84;5058155;28;45436;-75